Time;durP1;ratioP1;P1;durP2;ratioP2;P2;SDS_P1;SDS_P2;PMS_P1;PMS_P2;Temp;Humidity;BMP_temperature;BMP_pressure;BME280_temperature;BME280_humidity;BME280_pressure;Samples;Min_cycle;Max_cycle;Signal;HPM_P1;HPM_P2
2022/06/16 00:02:04;;;;;;;;;;;;;;;25.56;65.49;97891.56;5028938;28;19932;-80
2022/06/16 00:04:31;;;;;;;;;;;;;;;25.37;65.81;97877.88;5034145;28;19982;-80
2022/06/16 00:06:59;;;;;;;;;;;;;;;25.32;66.00;97888.28;5033698;28;19932;-80
2022/06/16 00:09:25;;;;;;;;;;;;;;;25.50;65.50;97887.53;5035478;28;19929;-79
2022/06/16 00:11:52;;;;;;;;;;;;;;;25.51;64.99;97883.66;5027574;28;19929;-79
2022/06/16 00:14:20;;;;;;;;;;;;;;;25.46;65.41;97889.41;5034222;28;20492;-80
2022/06/16 00:16:46;;;;;;;;;;;;;;;25.37;65.33;97894.28;5030557;28;20006;-79
2022/06/16 00:19:13;;;;;;;;;;;;;;;25.41;65.59;97892.41;5029376;28;19935;-80
2022/06/16 00:21:40;;;;;;;;;;;;;;;25.42;65.45;97887.72;5040165;28;19978;-80
2022/06/16 00:24:07;;;;;;;;;;;;;;;25.43;65.33;97881.13;5034376;28;19977;-81
2022/06/16 00:26:33;;;;;;;;;;;;;;;25.34;65.60;97875.88;5036238;28;20142;-80
2022/06/16 00:29:00;;;;;;;;;;;;;;;25.26;65.81;97885.06;5035322;28;19976;-79
2022/06/16 00:31:28;;;;;;;;;;;;;;;25.22;66.24;97881.47;5035062;28;19978;-80
2022/06/16 00:33:54;;;;;;;;;;;;;;;25.11;67.05;97888.66;5035903;28;19979;-79
2022/06/16 00:36:20;;;;;;;;;;;;;;;25.08;67.38;97881.97;5031917;28;19925;-80
2022/06/16 00:38:47;;;;;;;;;;;;;;;25.08;67.54;97875.69;5024474;28;19968;-80
2022/06/16 00:41:13;;;;;;;;;;;;;;;25.01;67.50;97881.81;5017405;28;20043;-80
2022/06/16 00:43:40;;;;;;;;;;;;;;;25.03;67.77;97885.00;5034383;28;20072;-80
2022/06/16 00:46:08;;;;;;;;;;;;;;;25.04;67.45;97877.56;5018137;28;19936;-80
2022/06/16 00:48:39;;;;;;;;;;;;;;;25.18;66.84;97880.59;5027339;28;19929;-80
2022/06/16 00:51:07;;;;;;;;;;;;;;;24.87;66.44;97884.25;5029694;28;19925;-80
2022/06/16 00:53:35;;;;;;;;;;;;;;;24.84;68.18;97886.88;5037601;28;19931;-79
2022/06/16 00:56:02;;;;;;;;;;;;;;;25.02;67.38;97888.06;5031280;28;20016;-80
2022/06/16 00:58:29;;;;;;;;;;;;;;;25.07;66.71;97890.50;5004933;28;19928;-79
2022/06/16 01:00:56;;;;;;;;;;;;;;;25.15;66.56;97884.06;5038264;28;19968;-80
2022/06/16 01:06:18;;;;;;;;;;;;;;;25.04;66.74;97881.09;5039845;28;19932;-78
2022/06/16 01:08:45;;;;;;;;;;;;;;;25.04;66.46;97878.34;5041178;28;19936;-79
2022/06/16 01:13:41;;;;;;;;;;;;;;;25.08;66.63;97872.97;5042969;28;20293;-79
2022/06/16 01:14:01;;;;;;;;;;;;;;;24.66;69.25;97854.47;5039796;28;19933;-80
2022/06/16 01:16:30;;;;;;;;;;;;;;;24.33;71.83;97853.28;5037073;28;19936;-81
2022/06/16 01:19:01;;;;;;;;;;;;;;;24.22;73.59;97869.41;5038445;28;20470;-79
2022/06/16 01:21:34;;;;;;;;;;;;;;;24.42;72.78;97865.59;5039468;28;20519;-79
2022/06/16 01:24:20;;;;;;;;;;;;;;;23.94;74.90;97874.13;5037990;28;19936;-80
2022/06/16 01:27:07;;;;;;;;;;;;;;;23.39;80.55;97866.78;5021249;28;20350;-79
2022/06/16 01:29:41;;;;;;;;;;;;;;;23.70;79.59;97868.81;5037854;28;20515;-80
2022/06/16 01:32:11;;;;;;;;;;;;;;;24.12;76.85;97870.75;5039004;28;20187;-79
2022/06/16 01:34:42;;;;;;;;;;;;;;;24.51;73.99;97865.44;5039579;28;19929;-80
2022/06/16 01:37:16;;;;;;;;;;;;;;;24.56;73.10;97868.69;5020739;28;20030;-80
2022/06/16 01:39:45;;;;;;;;;;;;;;;24.64;72.67;97864.16;5032303;28;20062;-80
2022/06/16 01:42:16;;;;;;;;;;;;;;;24.68;72.27;97867.78;5030930;28;19986;-81
2022/06/16 01:44:46;;;;;;;;;;;;;;;24.75;71.85;97869.88;5045358;28;20559;-79
2022/06/16 01:47:14;;;;;;;;;;;;;;;24.64;71.90;97864.16;5029983;28;20495;-79
2022/06/16 01:49:44;;;;;;;;;;;;;;;24.73;72.10;97864.75;5037259;28;19928;-82
2022/06/16 01:52:13;;;;;;;;;;;;;;;24.61;72.39;97865.66;5032996;28;19940;-81
2022/06/16 01:54:42;;;;;;;;;;;;;;;24.56;72.88;97863.22;5037302;28;20710;-81
2022/06/16 01:57:11;;;;;;;;;;;;;;;24.54;72.62;97856.53;5035652;28;19929;-82
2022/06/16 01:59:40;;;;;;;;;;;;;;;24.51;73.03;97862.72;5037035;28;20073;-81
2022/06/16 02:02:11;;;;;;;;;;;;;;;24.59;72.69;97864.44;5033058;28;19929;-80
2022/06/16 02:04:39;;;;;;;;;;;;;;;24.55;72.65;97856.16;5031751;28;19929;-80
2022/06/16 02:07:11;;;;;;;;;;;;;;;24.58;72.17;97847.28;5019964;28;20535;-80
2022/06/16 02:09:41;;;;;;;;;;;;;;;24.58;72.13;97855.47;5026086;28;19968;-80
2022/06/16 02:12:11;;;;;;;;;;;;;;;24.52;72.63;97862.34;5037219;28;20029;-80
2022/06/16 02:14:40;;;;;;;;;;;;;;;24.45;73.03;97859.44;5014871;28;19929;-80
2022/06/16 02:17:08;;;;;;;;;;;;;;;24.42;73.46;97868.34;5038399;28;20624;-79
2022/06/16 02:19:37;;;;;;;;;;;;;;;24.48;73.05;97856.00;5016921;28;19932;-80
2022/06/16 02:22:04;;;;;;;;;;;;;;;24.52;73.29;97853.34;5037960;28;19925;-79
2022/06/16 02:24:30;;;;;;;;;;;;;;;24.57;72.82;97851.13;5027871;28;20104;-79
2022/06/16 02:26:58;;;;;;;;;;;;;;;24.59;72.14;97859.00;5033439;28;19925;-80
2022/06/16 02:29:29;;;;;;;;;;;;;;;24.63;71.82;97863.38;5034899;28;19928;-80
2022/06/16 02:32:01;;;;;;;;;;;;;;;24.48;72.53;97866.16;5026376;28;20037;-79
2022/06/16 02:34:34;;;;;;;;;;;;;;;24.44;72.72;97862.53;5027089;28;20577;-80
2022/06/16 02:37:10;;;;;;;;;;;;;;;24.35;73.16;97867.41;5031032;28;19990;-80
2022/06/16 02:39:44;;;;;;;;;;;;;;;24.38;72.89;97862.03;5025997;28;19995;-79
2022/06/16 02:42:17;;;;;;;;;;;;;;;24.41;72.84;97861.31;5028205;28;19953;-80
2022/06/16 02:44:46;;;;;;;;;;;;;;;24.47;72.45;97859.09;5033070;28;20431;-79
2022/06/16 02:47:16;;;;;;;;;;;;;;;24.47;72.20;97862.63;5035682;28;19928;-80
2022/06/16 02:49:48;;;;;;;;;;;;;;;24.20;72.96;97863.53;5033345;28;20387;-80
2022/06/16 02:52:20;;;;;;;;;;;;;;;24.28;73.53;97854.38;5028331;28;20076;-81
2022/06/16 02:54:52;;;;;;;;;;;;;;;24.30;73.33;97862.97;5015693;28;19975;-80
2022/06/16 02:57:21;;;;;;;;;;;;;;;24.31;73.24;97850.13;5015509;28;20002;-80
2022/06/16 02:59:50;;;;;;;;;;;;;;;24.18;73.89;97852.16;5018560;28;20015;-80
2022/06/16 03:02:18;;;;;;;;;;;;;;;24.19;74.05;97856.47;5032542;28;20023;-80
2022/06/16 03:04:46;;;;;;;;;;;;;;;24.13;74.19;97846.97;5035464;28;19931;-80
2022/06/16 03:07:13;;;;;;;;;;;;;;;24.16;73.96;97840.81;5035828;28;20473;-80
2022/06/16 03:09:41;;;;;;;;;;;;;;;23.88;74.88;97851.00;5034926;28;20111;-79
2022/06/16 03:12:09;;;;;;;;;;;;;;;24.04;74.72;97844.41;5035495;28;20119;-80
2022/06/16 03:14:35;;;;;;;;;;;;;;;24.02;74.48;97854.84;5032970;28;19924;-80
2022/06/16 03:17:02;;;;;;;;;;;;;;;24.15;73.99;97845.47;5034554;28;19937;-80
2022/06/16 03:19:29;;;;;;;;;;;;;;;24.19;73.60;97851.03;5031258;28;19932;-79
2022/06/16 03:21:56;;;;;;;;;;;;;;;24.06;73.76;97849.50;5030167;28;20644;-80
2022/06/16 03:24:22;;;;;;;;;;;;;;;23.95;74.63;97848.44;5027402;28;20002;-80
2022/06/16 03:26:50;;;;;;;;;;;;;;;23.94;75.08;97841.41;5036802;28;20482;-80
2022/06/16 03:29:17;;;;;;;;;;;;;;;23.87;75.46;97838.47;5031698;28;19939;-80
2022/06/16 03:31:43;;;;;;;;;;;;;;;24.02;74.93;97854.06;5034151;28;19925;-82
2022/06/16 03:34:09;;;;;;;;;;;;;;;24.05;74.36;97847.91;5028403;28;19925;-80
2022/06/16 03:36:37;;;;;;;;;;;;;;;23.95;75.06;97851.94;5035720;28;19964;-79
2022/06/16 03:39:04;;;;;;;;;;;;;;;24.01;74.88;97852.50;5028649;28;19925;-80
2022/06/16 03:41:31;;;;;;;;;;;;;;;24.08;74.40;97849.94;5035969;28;19989;-79
2022/06/16 03:43:58;;;;;;;;;;;;;;;24.13;74.08;97844.25;5036676;28;20702;-80
2022/06/16 03:46:25;;;;;;;;;;;;;;;24.15;73.81;97847.41;5031572;28;19978;-80
2022/06/16 03:48:52;;;;;;;;;;;;;;;24.04;74.54;97849.06;5028523;28;20039;-79
2022/06/16 03:51:19;;;;;;;;;;;;;;;24.11;74.48;97849.25;5031614;28;20133;-79
2022/06/16 03:53:46;;;;;;;;;;;;;;;24.13;74.26;97852.44;5034794;28;20029;-79
2022/06/16 03:56:13;;;;;;;;;;;;;;;23.83;75.74;97852.03;5028698;28;19940;-80
2022/06/16 03:58:39;;;;;;;;;;;;;;;23.72;76.27;97848.25;5013344;28;20582;-79
2022/06/16 04:01:08;;;;;;;;;;;;;;;23.66;77.61;97849.66;5022649;28;20116;-80
2022/06/16 04:06:19;;;;;;;;;;;;;;;23.86;76.35;97861.47;5032194;28;19970;-80
2022/06/16 04:08:45;;;;;;;;;;;;;;;23.65;77.07;97854.31;5034008;28;19937;-81
2022/06/16 04:11:30;;;;;;;;;;;;;;;23.34;79.85;97854.19;5034366;28;20739;-81
2022/06/16 04:14:00;;;;;;;;;;;;;;;23.60;78.57;97861.94;5031493;28;19932;-81
2022/06/16 04:16:28;;;;;;;;;;;;;;;23.67;77.79;97856.69;5014735;28;20095;-80
2022/06/16 04:18:55;;;;;;;;;;;;;;;23.80;77.23;97855.47;5038306;28;20504;-80
2022/06/16 04:21:21;;;;;;;;;;;;;;;23.85;76.93;97857.94;5035771;28;20192;-80
2022/06/16 04:23:47;;;;;;;;;;;;;;;23.54;77.97;97855.16;5035639;28;20501;-80
2022/06/16 04:26:14;;;;;;;;;;;;;;;22.90;83.22;97853.31;5033831;28;19929;-80
2022/06/16 04:28:40;;;;;;;;;;;;;;;22.60;85.46;97860.94;5040453;28;20036;-81
2022/06/16 04:31:07;;;;;;;;;;;;;;;22.12;89.45;97855.53;5021183;28;19960;-80
2022/06/16 04:33:35;;;;;;;;;;;;;;;22.13;90.15;97843.50;5033668;28;20008;-81
2022/06/16 04:36:01;;;;;;;;;;;;;;;21.65;93.37;97846.94;5036242;28;20336;-80
2022/06/16 04:38:27;;;;;;;;;;;;;;;21.41;95.91;97844.94;5036840;28;20464;-79
2022/06/16 04:40:54;;;;;;;;;;;;;;;21.12;98.69;97845.03;5033755;28;20024;-81
2022/06/16 04:43:20;;;;;;;;;;;;;;;21.26;98.31;97856.41;5039597;28;19964;-80
2022/06/16 04:45:47;;;;;;;;;;;;;;;21.31;98.12;97853.50;5038493;28;19976;-80
2022/06/16 04:48:13;;;;;;;;;;;;;;;21.15;99.59;97847.09;5038059;28;20421;-80
2022/06/16 04:50:41;;;;;;;;;;;;;;;20.91;100.00;97849.66;5033198;28;20080;-80
2022/06/16 04:53:07;;;;;;;;;;;;;;;20.86;100.00;97847.13;5037811;28;19925;-80
2022/06/16 04:55:34;;;;;;;;;;;;;;;20.74;100.00;97847.84;5036816;28;20012;-81
2022/06/16 04:58:01;;;;;;;;;;;;;;;20.57;100.00;97849.91;5021814;28;20478;-79
2022/06/16 05:00:27;;;;;;;;;;;;;;;20.33;100.00;97854.00;5027394;28;19924;-81
2022/06/16 05:02:54;;;;;;;;;;;;;;;20.36;100.00;97861.50;5013305;28;20081;-81
2022/06/16 05:05:20;;;;;;;;;;;;;;;20.30;100.00;97849.25;5033976;28;19925;-80
2022/06/16 05:07:48;;;;;;;;;;;;;;;20.31;100.00;97856.28;5027235;28;20020;-82
2022/06/16 05:10:15;;;;;;;;;;;;;;;20.46;100.00;97847.56;5028045;28;20032;-81
2022/06/16 05:12:41;;;;;;;;;;;;;;;20.44;100.00;97852.53;5019878;28;19960;-80
2022/06/16 05:15:08;;;;;;;;;;;;;;;20.37;100.00;97840.59;5036701;28;20355;-80
2022/06/16 05:17:34;;;;;;;;;;;;;;;20.42;100.00;97854.75;5032749;28;20189;-80
2022/06/16 05:20:01;;;;;;;;;;;;;;;20.39;100.00;97855.41;5038041;28;20011;-80
2022/06/16 05:22:27;;;;;;;;;;;;;;;20.36;100.00;97853.34;5040161;28;19929;-79
2022/06/16 05:24:55;;;;;;;;;;;;;;;20.37;100.00;97868.53;5028662;28;19931;-80
2022/06/16 05:27:21;;;;;;;;;;;;;;;20.63;100.00;97864.88;5011963;28;19968;-80
2022/06/16 05:29:48;;;;;;;;;;;;;;;20.88;100.00;97863.91;5020566;28;19934;-79
2022/06/16 05:32:14;;;;;;;;;;;;;;;20.86;100.00;97860.69;5040350;28;20471;-79
2022/06/16 05:34:42;;;;;;;;;;;;;;;20.83;100.00;97862.16;5035338;28;20092;-79
2022/06/16 05:37:08;;;;;;;;;;;;;;;21.06;100.00;97865.34;5025782;28;20088;-80
2022/06/16 05:39:35;;;;;;;;;;;;;;;21.24;100.00;97869.53;5012690;28;20564;-80
2022/06/16 05:42:02;;;;;;;;;;;;;;;21.30;100.00;97868.19;5035863;28;20368;-79
2022/06/16 05:44:29;;;;;;;;;;;;;;;21.60;100.00;97870.81;5016808;28;19935;-79
2022/06/16 05:46:55;;;;;;;;;;;;;;;21.43;100.00;97879.91;5032051;28;20519;-79
2022/06/16 05:49:22;;;;;;;;;;;;;;;21.52;100.00;97886.84;5031231;28;19936;-79
2022/06/16 05:51:48;;;;;;;;;;;;;;;21.88;100.00;97882.66;5017772;28;20155;-79
2022/06/16 05:54:15;;;;;;;;;;;;;;;21.83;100.00;97885.59;5031792;28;19939;-78
2022/06/16 05:56:41;;;;;;;;;;;;;;;21.76;100.00;97888.03;5029035;28;19931;-80
2022/06/16 05:59:09;;;;;;;;;;;;;;;21.82;100.00;97886.69;5036501;28;19935;-80
2022/06/16 06:01:35;;;;;;;;;;;;;;;22.14;100.00;97891.34;5033993;28;20338;-80
2022/06/16 06:04:01;;;;;;;;;;;;;;;22.22;100.00;97892.38;5036539;28;19971;-80
2022/06/16 06:06:28;;;;;;;;;;;;;;;22.30;100.00;97888.75;5032073;28;19936;-81
2022/06/16 06:17:11;;;;;;;;;;;;;;;23.15;92.65;97900.34;5027557;28;20006;-80
2022/06/16 06:19:37;;;;;;;;;;;;;;;23.06;93.26;97905.13;5036608;28;20159;-81
2022/06/16 06:22:06;;;;;;;;;;;;;;;22.91;95.18;97911.31;5030123;28;19948;-80
2022/06/16 06:24:34;;;;;;;;;;;;;;;22.57;99.41;97905.19;5025052;28;20380;-80
2022/06/16 06:27:02;;;;;;;;;;;;;;;22.30;100.00;97913.22;5033518;28;20016;-80
2022/06/16 06:29:30;;;;;;;;;;;;;;;22.60;100.00;97906.44;5036885;28;19928;-80
2022/06/16 06:31:57;;;;;;;;;;;;;;;22.64;100.00;97896.44;5035868;28;20301;-79
2022/06/16 06:34:23;;;;;;;;;;;;;;;23.04;97.73;97891.09;5018815;28;19936;-80
2022/06/16 06:36:50;;;;;;;;;;;;;;;22.72;99.37;97884.66;5017767;28;19995;-79
2022/06/16 06:39:19;;;;;;;;;;;;;;;22.90;98.20;97887.94;5018401;28;20337;-79
2022/06/16 06:41:45;;;;;;;;;;;;;;;22.98;97.72;97897.91;5035027;28;20813;-80
2022/06/16 06:44:12;;;;;;;;;;;;;;;23.19;96.54;97901.25;5037005;28;20023;-80
2022/06/16 06:46:40;;;;;;;;;;;;;;;23.61;92.82;97901.72;5035443;28;20060;-80
2022/06/16 06:49:06;;;;;;;;;;;;;;;23.40;96.59;97893.72;5016852;28;19972;-80
2022/06/16 06:51:33;;;;;;;;;;;;;;;23.43;96.07;97897.66;5031078;28;19931;-79
2022/06/16 06:54:00;;;;;;;;;;;;;;;23.20;98.67;97894.69;5038576;28;20166;-79
2022/06/16 06:56:26;;;;;;;;;;;;;;;23.10;100.00;97892.44;5028295;28;20004;-80
2022/06/16 06:58:53;;;;;;;;;;;;;;;23.15;100.00;97891.41;5030267;28;20024;-80
2022/06/16 07:01:19;;;;;;;;;;;;;;;23.30;99.31;97887.94;5026717;28;20592;-80
2022/06/16 07:03:49;;;;;;;;;;;;;;;23.14;100.00;97890.59;5032767;28;19940;-79
2022/06/16 07:06:16;;;;;;;;;;;;;;;22.93;100.00;97871.69;5036274;28;19928;-79
2022/06/16 07:08:43;;;;;;;;;;;;;;;22.85;100.00;97872.63;5036826;28;20421;-80
2022/06/16 07:11:09;;;;;;;;;;;;;;;22.95;100.00;97876.81;5035283;28;20081;-79
2022/06/16 07:13:36;;;;;;;;;;;;;;;23.44;99.40;97885.63;5030903;28;19957;-80
2022/06/16 07:16:02;;;;;;;;;;;;;;;23.43;99.76;97886.78;5030357;28;20386;-81
2022/06/16 07:18:28;;;;;;;;;;;;;;;23.48;98.94;97895.50;5037004;28;20032;-80
2022/06/16 07:20:56;;;;;;;;;;;;;;;23.53;100.00;97889.00;5037682;28;20437;-80
2022/06/16 07:23:23;;;;;;;;;;;;;;;23.61;96.77;97904.44;5029232;28;19951;-79
2022/06/16 07:25:50;;;;;;;;;;;;;;;23.52;96.33;97906.53;5036950;28;20361;-79
2022/06/16 07:28:17;;;;;;;;;;;;;;;23.58;95.52;97900.44;5037419;28;19931;-79
2022/06/16 07:30:43;;;;;;;;;;;;;;;23.53;97.46;97897.97;5032005;28;19968;-81
2022/06/16 07:33:12;;;;;;;;;;;;;;;23.21;100.00;97890.78;5037488;28;20141;-80
2022/06/16 07:35:40;;;;;;;;;;;;;;;23.42;100.00;97885.22;5032961;28;19929;-79
2022/06/16 07:38:08;;;;;;;;;;;;;;;23.69;97.76;97873.47;5036726;28;20033;-80
2022/06/16 07:40:35;;;;;;;;;;;;;;;24.71;90.50;97870.59;5028750;28;20367;-78
2022/06/16 07:43:01;;;;;;;;;;;;;;;24.50;92.54;97880.22;5034430;28;19979;-82
2022/06/16 07:45:29;;;;;;;;;;;;;;;24.33;95.34;97873.19;5035027;28;20308;-78
2022/06/16 07:47:57;;;;;;;;;;;;;;;24.07;97.87;97872.91;5044248;28;19995;-80
2022/06/16 07:50:24;;;;;;;;;;;;;;;23.88;100.00;97876.34;5031549;28;20152;-79
2022/06/16 07:52:50;;;;;;;;;;;;;;;24.31;96.21;97863.78;5010740;28;20016;-80
2022/06/16 07:55:18;;;;;;;;;;;;;;;24.61;93.54;97865.66;5034136;28;19933;-79
2022/06/16 07:57:47;;;;;;;;;;;;;;;24.63;91.92;97857.91;5034246;28;19951;-80
2022/06/16 08:00:15;;;;;;;;;;;;;;;24.71;92.08;97851.47;5029746;28;19933;-79
2022/06/16 08:02:42;;;;;;;;;;;;;;;24.45;93.39;97864.13;5034023;28;19979;-80
2022/06/16 08:05:10;;;;;;;;;;;;;;;24.81;91.51;97868.44;5041308;28;20059;-77
2022/06/16 08:07:36;;;;;;;;;;;;;;;24.53;92.65;97880.31;5040625;28;19936;-79
2022/06/16 08:10:04;;;;;;;;;;;;;;;25.49;88.14;97882.44;5034221;28;20109;-79
2022/06/16 08:12:31;;;;;;;;;;;;;;;25.78;86.42;97887.28;5040321;28;20460;-80
2022/06/16 08:14:58;;;;;;;;;;;;;;;26.23;83.73;97895.56;5039070;28;19936;-79
2022/06/16 08:17:26;;;;;;;;;;;;;;;26.48;82.31;97901.44;5039685;28;19928;-80
2022/06/16 08:19:53;;;;;;;;;;;;;;;26.62;81.92;97878.94;5038161;28;19968;-79
2022/06/16 08:22:19;;;;;;;;;;;;;;;26.82;81.12;97880.47;5040469;28;19939;-80
2022/06/16 08:24:47;;;;;;;;;;;;;;;26.62;82.29;97881.69;5021159;28;20157;-81
2022/06/16 08:27:14;;;;;;;;;;;;;;;25.99;88.14;97886.91;5041063;28;20001;-79
2022/06/16 08:29:43;;;;;;;;;;;;;;;25.85;89.19;97878.41;5042355;28;20024;-81
2022/06/16 08:32:10;;;;;;;;;;;;;;;26.04;88.26;97879.16;5021336;28;19925;-80
2022/06/16 08:34:36;;;;;;;;;;;;;;;26.17;87.52;97880.59;5017941;28;20347;-82
2022/06/16 08:37:02;;;;;;;;;;;;;;;26.13;88.11;97890.66;5040499;28;20096;-80
2022/06/16 08:39:29;;;;;;;;;;;;;;;26.16;87.39;97897.38;5039837;28;19928;-80
2022/06/16 08:42:01;;;;;;;;;;;;;;;26.04;87.31;97897.53;5038582;28;20108;-80
2022/06/16 08:44:29;;;;;;;;;;;;;;;26.26;86.73;97894.03;5037941;28;20014;-80
2022/06/16 08:47:04;;;;;;;;;;;;;;;26.68;83.91;97883.75;5018951;28;20403;-81
2022/06/16 08:49:33;;;;;;;;;;;;;;;26.62;83.86;97890.69;5032779;28;19925;-79
2022/06/16 08:52:09;;;;;;;;;;;;;;;26.60;83.90;97889.50;5032878;28;19933;-80
2022/06/16 08:54:42;;;;;;;;;;;;;;;26.94;82.60;97890.41;5037736;28;20021;-81
2022/06/16 08:57:11;;;;;;;;;;;;;;;27.18;80.83;97890.75;5035849;28;19995;-80
2022/06/16 08:59:41;;;;;;;;;;;;;;;27.29;80.12;97897.19;5037416;28;19971;-80
2022/06/16 09:02:14;;;;;;;;;;;;;;;27.10;80.34;97899.25;5016265;28;20324;-80
2022/06/16 09:04:41;;;;;;;;;;;;;;;27.13;81.32;97896.56;5013741;28;20519;-82
2022/06/16 09:07:14;;;;;;;;;;;;;;;27.21;80.30;97905.66;5015872;28;19976;-80
2022/06/16 09:12:37;;;;;;;;;;;;;;;27.59;75.48;97893.63;5036759;28;20023;-79
2022/06/16 09:15:13;;;;;;;;;;;;;;;27.53;75.79;97887.69;5039624;28;20032;-80
2022/06/16 09:17:44;;;;;;;;;;;;;;;27.66;74.13;97899.19;5017094;28;20178;-81
2022/06/16 09:20:15;;;;;;;;;;;;;;;27.49;72.43;97899.78;5039505;28;19925;-77
2022/06/16 09:22:49;;;;;;;;;;;;;;;27.32;75.77;97890.94;5039013;28;20003;-80
2022/06/16 09:25:21;;;;;;;;;;;;;;;27.46;75.42;97895.03;5020713;28;20387;-81
2022/06/16 09:27:51;;;;;;;;;;;;;;;27.69;76.02;97887.47;5019730;28;20162;-80
2022/06/16 09:30:19;;;;;;;;;;;;;;;27.51;77.21;97906.47;5040779;28;20364;-80
2022/06/16 09:32:49;;;;;;;;;;;;;;;27.37;77.83;97903.53;5036438;28;20031;-80
2022/06/16 09:35:18;;;;;;;;;;;;;;;27.07;77.49;97900.00;5038406;28;19979;-80
2022/06/16 09:37:47;;;;;;;;;;;;;;;27.25;76.50;97903.75;5010914;28;19931;-80
2022/06/16 09:40:16;;;;;;;;;;;;;;;27.34;75.31;97902.31;5026599;28;19980;-79
2022/06/16 09:42:45;;;;;;;;;;;;;;;27.30;73.76;97900.69;5033583;28;20063;-81
2022/06/16 09:45:14;;;;;;;;;;;;;;;27.32;72.38;97901.13;5016722;28;20027;-80
2022/06/16 09:47:45;;;;;;;;;;;;;;;27.29;70.16;97901.88;5033379;28;20023;-80
2022/06/16 09:50:17;;;;;;;;;;;;;;;27.21;71.35;97900.97;5032331;28;19948;-78
2022/06/16 09:52:46;;;;;;;;;;;;;;;27.43;71.94;97896.56;5027871;28;20080;-81
2022/06/16 09:55:24;;;;;;;;;;;;;;;27.54;71.02;97897.50;5027828;28;19961;-80
2022/06/16 09:57:53;;;;;;;;;;;;;;;27.87;69.20;97894.72;5029785;28;19928;-79
2022/06/16 10:00:21;;;;;;;;;;;;;;;28.00;68.61;97910.94;5023821;28;20016;-81
2022/06/16 10:02:49;;;;;;;;;;;;;;;28.24;67.23;97913.16;5018068;28;20488;-80
2022/06/16 10:05:18;;;;;;;;;;;;;;;27.86;68.23;97908.81;5035861;28;20061;-81
2022/06/16 10:07:48;;;;;;;;;;;;;;;27.49;69.84;97911.53;5035763;28;20008;-79
2022/06/16 10:10:17;;;;;;;;;;;;;;;27.43;72.30;97928.69;5027844;28;20036;-81
2022/06/16 10:12:48;;;;;;;;;;;;;;;27.77;70.95;97917.34;5010973;28;20011;-79
2022/06/16 10:15:18;;;;;;;;;;;;;;;27.91;71.47;97919.47;5035337;28;19960;-79
2022/06/16 10:17:46;;;;;;;;;;;;;;;28.14;71.74;97914.63;5042114;28;20503;-80
2022/06/16 10:20:14;;;;;;;;;;;;;;;28.12;71.35;97927.94;5025597;28;19925;-80
2022/06/16 10:22:46;;;;;;;;;;;;;;;28.29;71.85;97923.78;5038283;28;20556;-80
2022/06/16 10:25:14;;;;;;;;;;;;;;;28.15;72.43;97929.94;5035332;28;20287;-80
2022/06/16 10:27:44;;;;;;;;;;;;;;;28.19;72.21;97921.75;5022877;28;19932;-81
2022/06/16 10:30:19;;;;;;;;;;;;;;;28.20;74.19;97917.81;5040323;28;19925;-80
2022/06/16 10:32:47;;;;;;;;;;;;;;;28.17;76.61;97935.03;5039199;28;19929;-81
2022/06/16 10:35:16;;;;;;;;;;;;;;;28.37;77.03;97919.94;5034808;28;19925;-80
2022/06/16 10:37:46;;;;;;;;;;;;;;;28.47;78.77;97922.00;5037492;28;20116;-80
2022/06/16 10:40:14;;;;;;;;;;;;;;;28.50;79.19;97918.50;5036706;28;20162;-81
2022/06/16 10:42:42;;;;;;;;;;;;;;;28.37;79.05;97920.72;5035370;28;20541;-83
2022/06/16 10:45:11;;;;;;;;;;;;;;;28.35;78.37;97920.31;5036983;28;20028;-83
2022/06/16 10:47:51;;;;;;;;;;;;;;;28.45;77.86;97913.31;5034886;28;19960;-82
2022/06/16 10:50:21;;;;;;;;;;;;;;;28.54;75.97;97916.53;5031371;28;19955;-81
2022/06/16 10:52:51;;;;;;;;;;;;;;;28.49;74.49;97913.34;5038934;28;20085;-81
2022/06/16 10:55:20;;;;;;;;;;;;;;;28.31;74.47;97914.00;5008897;28;19936;-81
2022/06/16 10:57:48;;;;;;;;;;;;;;;28.39;74.23;97914.84;5036531;28;20108;-80
2022/06/16 11:00:17;;;;;;;;;;;;;;;28.37;75.51;97911.69;5029417;28;19931;-80
2022/06/16 11:02:57;;;;;;;;;;;;;;;28.38;75.86;97907.75;5034301;28;20007;-80
2022/06/16 11:05:24;;;;;;;;;;;;;;;28.40;75.00;97906.25;5039353;28;19928;-81
2022/06/16 11:07:52;;;;;;;;;;;;;;;28.43;75.10;97907.44;5031371;28;20012;-79
2022/06/16 11:10:28;;;;;;;;;;;;;;;28.46;75.96;97906.66;5039440;28;19931;-80
2022/06/16 11:12:55;;;;;;;;;;;;;;;28.39;75.65;97903.84;5012745;28;20366;-81
2022/06/16 11:15:24;;;;;;;;;;;;;;;28.39;77.54;97898.38;5037685;28;20418;-80
2022/06/16 11:17:53;;;;;;;;;;;;;;;28.50;79.26;97903.97;5023809;28;19933;-80
2022/06/16 11:20:23;;;;;;;;;;;;;;;28.52;79.50;97899.66;5019334;28;19941;-81
2022/06/16 11:22:51;;;;;;;;;;;;;;;28.68;80.36;97893.91;5037134;28;19979;-80
2022/06/16 11:25:21;;;;;;;;;;;;;;;28.57;80.09;97895.75;5012470;28;19964;-80
2022/06/16 11:27:49;;;;;;;;;;;;;;;28.59;80.77;97890.69;5028353;28;19925;-80
2022/06/16 11:30:34;;;;;;;;;;;;;;;28.65;82.34;97892.72;5037770;28;20180;-80
2022/06/16 11:33:01;;;;;;;;;;;;;;;28.79;80.82;97884.56;5031138;28;19931;-81
2022/06/16 11:35:32;;;;;;;;;;;;;;;28.82;81.67;97883.78;5009794;28;20008;-79
2022/06/16 11:38:00;;;;;;;;;;;;;;;29.09;80.93;97880.81;5038210;28;20039;-79
2022/06/16 11:40:34;;;;;;;;;;;;;;;29.17;78.20;97869.47;5038387;28;20011;-81
2022/06/16 11:43:06;;;;;;;;;;;;;;;28.93;79.53;97870.91;5037083;28;20015;-80
2022/06/16 11:45:35;;;;;;;;;;;;;;;28.92;78.97;97863.84;5029405;28;19925;-81
2022/06/16 11:48:08;;;;;;;;;;;;;;;28.86;80.82;97864.56;5017620;28;19968;-80
2022/06/16 11:50:37;;;;;;;;;;;;;;;28.86;78.87;97868.13;5024713;28;20225;-81
2022/06/16 11:53:09;;;;;;;;;;;;;;;28.87;79.92;97860.66;5036773;28;20790;-80
2022/06/16 11:55:40;;;;;;;;;;;;;;;28.94;77.09;97850.47;5019159;28;20035;-81
2022/06/16 11:58:13;;;;;;;;;;;;;;;29.12;76.25;97847.03;5033185;28;19942;-80
2022/06/16 12:00:45;;;;;;;;;;;;;;;28.97;77.72;97846.16;5031899;28;19925;-81
2022/06/16 12:03:23;;;;;;;;;;;;;;;29.34;72.79;97845.97;5026893;28;20031;-80
2022/06/16 12:05:58;;;;;;;;;;;;;;;29.01;74.27;97846.97;5036844;28;20308;-82
2022/06/16 12:08:46;;;;;;;;;;;;;;;29.21;70.49;97841.97;5034967;28;20357;-79
2022/06/16 12:11:18;;;;;;;;;;;;;;;29.43;67.03;97847.19;5033364;28;19932;-80
2022/06/16 12:13:56;;;;;;;;;;;;;;;29.06;70.21;97848.59;5035741;28;20228;-81
2022/06/16 12:16:26;;;;;;;;;;;;;;;28.87;71.16;97853.19;5034766;28;19958;-81
2022/06/16 12:19:00;;;;;;;;;;;;;;;28.89;69.66;97870.09;5016105;28;19929;-79
2022/06/16 12:21:31;;;;;;;;;;;;;;;28.84;70.17;97870.44;5034287;28;20007;-79
2022/06/16 12:24:01;;;;;;;;;;;;;;;28.87;73.25;97888.91;5029923;28;19925;-81
2022/06/16 12:26:32;;;;;;;;;;;;;;;28.71;73.38;97893.16;5035926;28;20031;-82
2022/06/16 12:29:03;;;;;;;;;;;;;;;28.48;75.16;97885.09;5035909;28;19967;-81
2022/06/16 12:31:34;;;;;;;;;;;;;;;28.67;76.14;97876.63;5036313;28;19928;-80
2022/06/16 12:34:04;;;;;;;;;;;;;;;28.49;75.10;97886.69;5033863;28;20264;-80
2022/06/16 12:36:34;;;;;;;;;;;;;;;28.53;73.87;97903.19;5038716;28;20023;-81
2022/06/16 12:39:02;;;;;;;;;;;;;;;28.44;73.13;97900.78;5032832;28;19972;-80
2022/06/16 12:41:31;;;;;;;;;;;;;;;28.45;70.26;97924.31;5030961;28;20016;-81
2022/06/16 12:44:00;;;;;;;;;;;;;;;28.38;71.26;97918.75;5037960;28;20031;-80
2022/06/16 12:46:31;;;;;;;;;;;;;;;28.19;71.84;97919.78;5031215;28;20644;-80
2022/06/16 12:48:59;;;;;;;;;;;;;;;28.17;71.91;97921.31;5043495;28;19929;-80
2022/06/16 12:51:28;;;;;;;;;;;;;;;28.16;72.00;97906.03;5042220;28;20390;-81
2022/06/16 12:53:57;;;;;;;;;;;;;;;28.11;71.50;97901.66;5037163;28;19929;-80
2022/06/16 12:56:24;;;;;;;;;;;;;;;28.13;73.30;97898.53;5036726;28;19936;-80
2022/06/16 12:58:54;;;;;;;;;;;;;;;28.30;72.96;97901.44;5031890;28;19979;-80
2022/06/16 13:01:21;;;;;;;;;;;;;;;28.32;71.47;97904.59;5034567;28;20483;-80
2022/06/16 13:03:50;;;;;;;;;;;;;;;28.34;71.61;97895.97;5018652;28;20307;-78
2022/06/16 13:06:18;;;;;;;;;;;;;;;28.47;69.98;97894.53;5026074;28;19928;-80
2022/06/16 13:08:47;;;;;;;;;;;;;;;28.69;67.69;97895.50;5036720;28;20020;-79
2022/06/16 13:11:16;;;;;;;;;;;;;;;28.71;67.23;97891.19;5032251;28;19933;-81